LTCC Airport Information

Runway Information
Runway 16 Length 11644 ft width 148 ft
Elevation 2251 ft Threshold 0 ft Heading 163
Runway 34 Length 11644 ft Width 148 ft
Elevation 2176 ft Threshold 0 ft Heading 343
Airport Frequencies
Type ACP Name MAC ALCE Frequency 123.2 MHZ
Type APP Name APP Frequency 122.1 MHZ
Type ATIS Name ATIS Frequency 122.425 MHZ
Type GND Name GND Frequency 122.1 MHZ
Type TWR Name TWR Frequency 118.1 MHZ
Airport Navaids
Type TACAN Name Diyarbakir Frequency 110000 KHZ
Type VOR-DME Name Diyarbakir Frequency 109400 KHZ
Type NDB Name Diyarbakir Frequency 330 KHZ
Airport Weather Information & NOTAM
ADDS - METARS form results

(1805 UTC 15 December 2018)
Data provider http://aviationweather.gov/metar/data/
 
METAR text: LTCC 151750Z 26004KT CAVOK 04/02 Q1026 NOSIG
Conditions at: LTCC (DIYARBAKIR(CIV/A, TR) observed 1750 UTC 15 December 2018
Temperature: 4.0°C (39°F)
Dewpoint: 2.0°C (36°F) [RH = 87%]
Pressure (altimeter): 30.30 inches Hg (1026.0 mb)
Winds: from the W (260 degrees) at 5 MPH (4 knots; 2.1 m/s)
Visibility: 6 or more miles (10+ km)
Ceiling: ceiling and visibility are OK
Clouds: unknown
Weather: no significant weather observed at this time

METAR text: LTCC 151720Z VRB02KT CAVOK 05/02 Q1026 NOSIG
Conditions at: LTCC (DIYARBAKIR(CIV/A, TR) observed 1720 UTC 15 December 2018
Temperature: 5.0°C (41°F)
Dewpoint: 2.0°C (36°F) [RH = 81%]
Pressure (altimeter): 30.30 inches Hg (1026.0 mb)
Winds: variable direction winds at 2 MPH (2 knots; 1.0 m/s)
Visibility: 6 or more miles (10+ km)
Ceiling: ceiling and visibility are OK
Clouds: unknown
Weather: no significant weather observed at this time

Forecast for: COR
Text: TAF COR LTCC 151640Z 1518/1618 VRB02KT CAVOK
Forecast period: 1800 UTC 15 December 2018 to 1800 UTC 16 December 2018
Forecast type: FROM: standard forecast or significant change
Winds: variable direction winds at 2 MPH (2 knots; 1.0 m/s)
Visibility: 6 or more miles 10+ km)
Ceiling: unknown
Clouds: missing
Weather: NSW  (no significant weather)
Text: TEMPO 1522/1602 4000 BR
Forecast period: 2200 UTC 15 December 2018 to 0200 UTC 16 December 2018
Forecast type: TEMPORARY: The following changes expected for less than half the time period
Visibility: 2.49 miles (4.01 km)
Ceiling: unknown
Clouds: missing
Weather: BR  (mist)
Text: TEMPO 1602/1606 1200 BCFG
Forecast period: 0200 to 0600 UTC 16 December 2018
Forecast type: TEMPORARY: The following changes expected for less than half the time period
Visibility: 0.75 miles (1.21 km)
Ceiling: unknown
Clouds: missing
Weather: BCFG  (patches of fog)